Time;durP1;ratioP1;P1;durP2;ratioP2;P2;SDS_P1;SDS_P2;PMS_P1;PMS_P2;Temp;Humidity;BMP_temperature;BMP_pressure;BME280_temperature;BME280_humidity;BME280_pressure;Samples;Min_cycle;Max_cycle;Signal;HPM_P1;HPM_P2
2024/01/27 00:01:38;;;;;;;;;;;;;;;;;;5055335;28;19938;-83
2024/01/27 00:04:04;;;;;;;;;;;;;;;;;;5054275;28;19965;-83
2024/01/27 00:06:32;;;;;;;;;;;;;;;;;;5068076;28;19916;-83
2024/01/27 00:08:59;;;;;;;;;;;;;;;;;;5054823;28;19908;-82
2024/01/27 00:11:26;;;;;;;;;;;;;;;;;;5053381;28;19916;-82
2024/01/27 00:13:53;;;;;;;;;;;;;;;;;;5053969;28;20619;-84
2024/01/27 00:16:20;;;;;;;;;;;;;;;;;;5069875;28;20610;-83
2024/01/27 00:18:46;;;;;;;;;;;;;;;;;;5070769;28;19961;-84
2024/01/27 00:21:13;;;;;;;;;;;;;;;;;;5073044;28;20006;-84
2024/01/27 00:23:40;;;;;;;;;;;;;;;;;;5071221;28;20498;-84
2024/01/27 00:26:07;;;;;;;;;;;;;;;;;;5071845;28;19957;-83
2024/01/27 00:28:34;;;;;;;;;;;;;;;;;;5050437;28;20414;-84
2024/01/27 00:31:01;;;;;;;;;;;;;;;;;;5069932;28;19916;-84
2024/01/27 00:33:29;;;;;;;;;;;;;;;;;;5070628;28;20004;-83
2024/01/27 00:35:57;;;;;;;;;;;;;;;;;;5071229;28;19912;-83
2024/01/27 00:38:24;;;;;;;;;;;;;;;;;;5056377;28;20955;-84
2024/01/27 00:40:51;;;;;;;;;;;;;;;;;;5069693;28;20038;-84
2024/01/27 00:43:18;;;;;;;;;;;;;;;;;;5072019;28;20039;-83
2024/01/27 00:45:46;;;;;;;;;;;;;;;;;;5066349;28;21006;-83
2024/01/27 00:48:12;;;;;;;;;;;;;;;;;;5071028;28;19912;-83
2024/01/27 00:50:39;;;;;;;;;;;;;;;;;;5070303;28;19912;-83
2024/01/27 00:53:05;;;;;;;;;;;;;;;;;;5056116;28;20307;-83
2024/01/27 00:55:32;;;;;;;;;;;;;;;;;;5051155;28;19912;-84
2024/01/27 00:57:59;;;;;;;;;;;;;;;;;;5053046;28;19947;-84
2024/01/27 01:00:25;;;;;;;;;;;;;;;;;;5050912;28;19933;-84
2024/01/27 01:02:51;;;;;;;;;;;;;;;;;;5066875;28;20529;-83
2024/01/27 01:05:18;;;;;;;;;;;;;;;;;;5053294;28;19918;-84
2024/01/27 01:07:45;;;;;;;;;;;;;;;;;;5055878;28;20011;-84
2024/01/27 01:10:12;;;;;;;;;;;;;;;;;;5075307;28;19944;-85
2024/01/27 01:12:38;;;;;;;;;;;;;;;;;;5073864;28;19916;-85
2024/01/27 01:15:04;;;;;;;;;;;;;;;;;;5079949;28;19965;-84
2024/01/27 01:17:32;;;;;;;;;;;;;;;;;;5077882;28;19912;-85
2024/01/27 01:19:58;;;;;;;;;;;;;;;;;;5079527;28;19912;-84
2024/01/27 01:22:25;;;;;;;;;;;;;;;;;;5062868;28;19904;-84
2024/01/27 01:24:51;;;;;;;;;;;;;;;;;;5075010;28;20255;-84
2024/01/27 01:27:18;;;;;;;;;;;;;;;;;;5079826;28;20433;-84
2024/01/27 01:29:44;;;;;;;;;;;;;;;;;;5076626;28;19920;-85
2024/01/27 01:32:10;;;;;;;;;;;;;;;;;;5075011;28;19926;-85
2024/01/27 01:34:36;;;;;;;;;;;;;;;;;;5070705;28;19923;-87
2024/01/27 01:37:02;;;;;;;;;;;;;;;;;;5077668;28;19912;-85
2024/01/27 01:39:29;;;;;;;;;;;;;;;;;;5074131;28;19919;-85
2024/01/27 01:41:55;;;;;;;;;;;;;;;;;;5055571;28;19951;-84
2024/01/27 01:44:21;;;;;;;;;;;;;;;;;;5061933;28;19944;-85
2024/01/27 01:46:47;;;;;;;;;;;;;;;;;;5058816;28;19969;-85
2024/01/27 01:49:13;;;;;;;;;;;;;;;;;;5060717;28;19914;-85
2024/01/27 01:51:41;;;;;;;;;;;;;;;;;;5076495;28;20669;-85
2024/01/27 01:54:07;;;;;;;;;;;;;;;;;;5079255;28;19919;-85
2024/01/27 01:56:33;;;;;;;;;;;;;;;;;;5060207;28;19990;-84
2024/01/27 01:58:59;;;;;;;;;;;;;;;;;;5063177;28;19942;-85
2024/01/27 02:01:26;;;;;;;;;;;;;;;;;;5063359;28;19939;-84
2024/01/27 02:03:52;;;;;;;;;;;;;;;;;;5080952;28;20679;-84
2024/01/27 02:06:18;;;;;;;;;;;;;;;;;;5079969;28;19908;-84
2024/01/27 02:08:44;;;;;;;;;;;;;;;;;;5078813;28;20611;-83
2024/01/27 02:11:10;;;;;;;;;;;;;;;;;;5064068;28;19908;-84
2024/01/27 02:13:36;;;;;;;;;;;;;;;;;;5079634;28;19922;-84
2024/01/27 02:16:02;;;;;;;;;;;;;;;;;;5062957;28;20650;-84
2024/01/27 02:18:28;;;;;;;;;;;;;;;;;;5064160;28;20390;-84
2024/01/27 02:20:54;;;;;;;;;;;;;;;;;;5068919;28;19991;-85
2024/01/27 02:23:20;;;;;;;;;;;;;;;;;;5092584;28;19922;-84
2024/01/27 02:25:45;;;;;;;;;;;;;;;;;;5076523;28;19916;-85
2024/01/27 02:28:13;;;;;;;;;;;;;;;;;;5086577;28;19912;-85
2024/01/27 02:30:39;;;;;;;;;;;;;;;;;;5064161;28;19916;-85
2024/01/27 02:33:05;;;;;;;;;;;;;;;;;;5088194;28;20411;-85
2024/01/27 02:35:32;;;;;;;;;;;;;;;;;;5085489;28;20272;-84
2024/01/27 02:37:58;;;;;;;;;;;;;;;;;;5063769;28;20435;-84
2024/01/27 02:40:24;;;;;;;;;;;;;;;;;;5064597;28;20056;-84
2024/01/27 02:42:50;;;;;;;;;;;;;;;;;;5082975;28;19966;-86
2024/01/27 02:45:16;;;;;;;;;;;;;;;;;;5064624;28;20009;-84
2024/01/27 02:47:42;;;;;;;;;;;;;;;;;;5065256;28;19927;-85
2024/01/27 02:50:08;;;;;;;;;;;;;;;;;;5063221;28;19916;-84
2024/01/27 02:52:34;;;;;;;;;;;;;;;;;;5076167;28;20378;-85
2024/01/27 02:55:00;;;;;;;;;;;;;;;;;;5080815;28;20371;-84
2024/01/27 02:57:26;;;;;;;;;;;;;;;;;;5062161;28;19967;-85
2024/01/27 02:59:52;;;;;;;;;;;;;;;;;;5081493;28;19916;-85
2024/01/27 03:02:18;;;;;;;;;;;;;;;;;;5066233;28;20446;-85
2024/01/27 03:04:44;;;;;;;;;;;;;;;;;;5080544;28;21422;-84
2024/01/27 03:07:10;;;;;;;;;;;;;;;;;;5076486;28;19919;-85
2024/01/27 03:09:36;;;;;;;;;;;;;;;;;;5065008;28;19911;-85
2024/01/27 03:12:02;;;;;;;;;;;;;;;;;;5067757;28;19955;-85
2024/01/27 03:14:28;;;;;;;;;;;;;;;;;;5083874;28;19982;-86
2024/01/27 03:16:55;;;;;;;;;;;;;;;;;;5067960;28;19904;-84
2024/01/27 03:19:21;;;;;;;;;;;;;;;;;;5065781;28;20310;-85
2024/01/27 03:21:47;;;;;;;;;;;;;;;;;;5090200;28;19912;-84
2024/01/27 03:24:13;;;;;;;;;;;;;;;;;;5082779;28;19923;-85
2024/01/27 03:26:38;;;;;;;;;;;;;;;;;;5081224;28;20750;-85
2024/01/27 03:29:05;;;;;;;;;;;;;;;;;;5080348;28;20509;-85
2024/01/27 03:31:31;;;;;;;;;;;;;;;;;;5062962;28;20628;-85
2024/01/27 03:33:57;;;;;;;;;;;;;;;;;;5081265;28;20432;-86
2024/01/27 03:36:23;;;;;;;;;;;;;;;;;;5083442;28;19912;-85
2024/01/27 03:38:49;;;;;;;;;;;;;;;;;;5078355;28;19999;-84
2024/01/27 03:41:15;;;;;;;;;;;;;;;;;;5080942;28;19942;-84
2024/01/27 03:43:42;;;;;;;;;;;;;;;;;;5062516;28;19912;-85
2024/01/27 03:46:08;;;;;;;;;;;;;;;;;;5080196;28;19912;-85
2024/01/27 03:48:37;;;;;;;;;;;;;;;;;;5069142;28;20332;-85
2024/01/27 03:51:03;;;;;;;;;;;;;;;;;;5084086;28;20260;-85
2024/01/27 03:53:29;;;;;;;;;;;;;;;;;;5068205;28;19916;-85
2024/01/27 03:55:58;;;;;;;;;;;;;;;;;;5095158;28;19920;-84
2024/01/27 03:58:25;;;;;;;;;;;;;;;;;;5079805;28;19918;-84
2024/01/27 04:00:51;;;;;;;;;;;;;;;;;;5079773;28;19966;-85
2024/01/27 04:03:17;;;;;;;;;;;;;;;;;;5081921;28;20348;-84
2024/01/27 04:05:43;;;;;;;;;;;;;;;;;;5069007;28;20019;-86
2024/01/27 04:08:09;;;;;;;;;;;;;;;;;;5084385;28;19912;-85
2024/01/27 04:10:35;;;;;;;;;;;;;;;;;;5069802;28;20030;-85
2024/01/27 04:13:01;;;;;;;;;;;;;;;;;;5083685;28;19916;-85
2024/01/27 04:15:28;;;;;;;;;;;;;;;;;;5077506;28;19935;-84
2024/01/27 04:17:54;;;;;;;;;;;;;;;;;;5063722;28;19915;-84
2024/01/27 04:20:20;;;;;;;;;;;;;;;;;;5062569;28;19912;-85
2024/01/27 04:22:46;;;;;;;;;;;;;;;;;;5077413;28;19915;-85
2024/01/27 04:25:12;;;;;;;;;;;;;;;;;;5064829;28;20578;-85
2024/01/27 04:27:39;;;;;;;;;;;;;;;;;;5078333;28;20007;-85
2024/01/27 04:30:05;;;;;;;;;;;;;;;;;;5079596;28;19916;-85
2024/01/27 04:32:31;;;;;;;;;;;;;;;;;;5060999;28;20010;-85
2024/01/27 04:34:57;;;;;;;;;;;;;;;;;;5079829;28;19979;-85
2024/01/27 04:37:23;;;;;;;;;;;;;;;;;;5079833;28;19912;-86
2024/01/27 04:39:49;;;;;;;;;;;;;;;;;;5077875;28;19912;-86
2024/01/27 04:42:16;;;;;;;;;;;;;;;;;;5061445;28;19912;-85
2024/01/27 04:44:42;;;;;;;;;;;;;;;;;;5061725;28;19912;-84
2024/01/27 04:47:08;;;;;;;;;;;;;;;;;;5064603;28;20011;-84
2024/01/27 04:49:34;;;;;;;;;;;;;;;;;;5058022;28;19915;-85
2024/01/27 04:52:00;;;;;;;;;;;;;;;;;;5063696;28;19915;-85
2024/01/27 04:54:27;;;;;;;;;;;;;;;;;;5076835;28;19916;-85
2024/01/27 04:56:53;;;;;;;;;;;;;;;;;;5060390;28;19955;-84
2024/01/27 04:59:19;;;;;;;;;;;;;;;;;;5063659;28;19961;-84
2024/01/27 05:01:46;;;;;;;;;;;;;;;;;;5061801;28;20641;-83
2024/01/27 05:04:12;;;;;;;;;;;;;;;;;;5063659;28;20391;-84
2024/01/27 05:06:41;;;;;;;;;;;;;;;;;;5061032;28;19938;-83
2024/01/27 05:09:08;;;;;;;;;;;;;;;;;;5083677;28;19991;-84
2024/01/27 05:11:34;;;;;;;;;;;;;;;;;;5083000;28;19965;-84
2024/01/27 05:14:00;;;;;;;;;;;;;;;;;;5063417;28;19916;-84
2024/01/27 05:16:27;;;;;;;;;;;;;;;;;;5059843;28;20014;-85
2024/01/27 05:18:53;;;;;;;;;;;;;;;;;;5063863;28;20010;-84
2024/01/27 05:21:19;;;;;;;;;;;;;;;;;;5063061;28;20431;-85
2024/01/27 05:23:45;;;;;;;;;;;;;;;;;;5075433;28;19923;-85
2024/01/27 05:26:11;;;;;;;;;;;;;;;;;;5081698;28;19912;-84
2024/01/27 05:28:37;;;;;;;;;;;;;;;;;;5078837;28;19916;-84
2024/01/27 05:31:03;;;;;;;;;;;;;;;;;;5063930;28;19920;-84
2024/01/27 05:33:29;;;;;;;;;;;;;;;;;;5069086;28;19996;-84
2024/01/27 05:35:56;;;;;;;;;;;;;;;;;;5086418;28;20080;-85
2024/01/27 05:38:22;;;;;;;;;;;;;;;;;;5090264;28;19949;-83
2024/01/27 05:40:50;;;;;;;;;;;;;;;;;;5080080;28;20614;-84
2024/01/27 05:43:16;;;;;;;;;;;;;;;;;;5066499;28;19919;-85
2024/01/27 05:45:42;;;;;;;;;;;;;;;;;;5076371;28;19912;-84
2024/01/27 05:48:08;;;;;;;;;;;;;;;;;;5065914;28;19972;-85
2024/01/27 05:50:35;;;;;;;;;;;;;;;;;;5078371;28;19916;-84
2024/01/27 05:53:02;;;;;;;;;;;;;;;;;;5057463;28;19971;-85
2024/01/27 05:55:28;;;;;;;;;;;;;;;;;;5077266;28;19959;-85
2024/01/27 05:57:57;;;;;;;;;;;;;;;;;;5060771;28;19955;-85
2024/01/27 06:00:23;;;;;;;;;;;;;;;;;;5062083;28;19919;-85
2024/01/27 06:02:49;;;;;;;;;;;;;;;;;;5078767;28;19912;-85
2024/01/27 06:05:15;;;;;;;;;;;;;;;;;;5083138;28;19908;-85
2024/01/27 06:07:41;;;;;;;;;;;;;;;;;;5060935;28;19913;-85
2024/01/27 06:10:07;;;;;;;;;;;;;;;;;;5063533;28;19970;-85
2024/01/27 06:12:32;;;;;;;;;;;;;;;;;;5078750;28;19984;-84
2024/01/27 06:14:58;;;;;;;;;;;;;;;;;;5065957;28;19912;-85
2024/01/27 06:17:26;;;;;;;;;;;;;;;;;;5064289;28;20409;-84
2024/01/27 06:19:52;;;;;;;;;;;;;;;;;;5062165;28;19915;-87
2024/01/27 06:22:18;;;;;;;;;;;;;;;;;;5079382;28;19995;-84
2024/01/27 06:24:44;;;;;;;;;;;;;;;;;;5079263;28;19920;-85
2024/01/27 06:27:10;;;;;;;;;;;;;;;;;;5064119;28;19916;-85
2024/01/27 06:29:36;;;;;;;;;;;;;;;;;;5058787;28;19912;-85
2024/01/27 06:32:02;;;;;;;;;;;;;;;;;;5060275;28;19969;-85
2024/01/27 06:34:29;;;;;;;;;;;;;;;;;;5080371;28;19912;-84
2024/01/27 06:36:55;;;;;;;;;;;;;;;;;;5065822;28;19954;-85
2024/01/27 06:39:21;;;;;;;;;;;;;;;;;;5067242;28;19951;-85
2024/01/27 06:41:47;;;;;;;;;;;;;;;;;;5081991;28;19998;-84
2024/01/27 06:44:13;;;;;;;;;;;;;;;;;;5069380;28;20007;-85
2024/01/27 06:46:39;;;;;;;;;;;;;;;;;;5067400;28;19912;-84
2024/01/27 06:49:05;;;;;;;;;;;;;;;;;;5082547;28;19965;-84
2024/01/27 06:51:31;;;;;;;;;;;;;;;;;;5060006;28;19920;-84
2024/01/27 06:53:57;;;;;;;;;;;;;;;;;;5079015;28;19912;-85
2024/01/27 06:56:23;;;;;;;;;;;;;;;;;;5061986;28;19955;-84
2024/01/27 06:58:50;;;;;;;;;;;;;;;;;;5077834;28;19935;-84
2024/01/27 07:01:16;;;;;;;;;;;;;;;;;;5059130;28;19969;-84
2024/01/27 07:03:44;;;;;;;;;;;;;;;;;;5059369;28;19912;-85
2024/01/27 07:06:10;;;;;;;;;;;;;;;;;;5081127;28;19912;-85
2024/01/27 07:08:36;;;;;;;;;;;;;;;;;;5081976;28;19912;-85
2024/01/27 07:11:02;;;;;;;;;;;;;;;;;;5086374;28;19968;-84
2024/01/27 07:13:29;;;;;;;;;;;;;;;;;;5078226;28;19964;-84
2024/01/27 07:15:55;;;;;;;;;;;;;;;;;;5085514;28;19958;-86
2024/01/27 07:18:22;;;;;;;;;;;;;;;;;;5068144;28;19955;-85
2024/01/27 07:20:48;;;;;;;;;;;;;;;;;;5067485;28;19908;-85
2024/01/27 07:23:14;;;;;;;;;;;;;;;;;;5084148;28;19916;-85
2024/01/27 07:25:39;;;;;;;;;;;;;;;;;;5067451;28;19916;-85
2024/01/27 07:28:05;;;;;;;;;;;;;;;;;;5066047;28;19919;-85
2024/01/27 07:30:31;;;;;;;;;;;;;;;;;;5068071;28;19972;-84
2024/01/27 07:32:57;;;;;;;;;;;;;;;;;;5081722;28;19946;-85
2024/01/27 07:35:23;;;;;;;;;;;;;;;;;;5066509;28;19912;-84
2024/01/27 07:37:49;;;;;;;;;;;;;;;;;;5067513;28;19996;-85
2024/01/27 07:40:15;;;;;;;;;;;;;;;;;;5067921;28;20011;-85
2024/01/27 07:42:41;;;;;;;;;;;;;;;;;;5062322;28;20490;-84
2024/01/27 07:45:08;;;;;;;;;;;;;;;;;;5084153;28;20022;-85
2024/01/27 07:47:34;;;;;;;;;;;;;;;;;;5076725;28;19976;-85
2024/01/27 07:50:00;;;;;;;;;;;;;;;;;;5084288;28;19912;-84
2024/01/27 07:52:26;;;;;;;;;;;;;;;;;;5081249;28;19955;-86
2024/01/27 07:54:54;;;;;;;;;;;;;;;;;;5071091;28;19940;-88
2024/01/27 07:57:20;;;;;;;;;;;;;;;;;;5078212;28;19919;-85
2024/01/27 07:59:46;;;;;;;;;;;;;;;;;;5085859;28;19916;-86
2024/01/27 08:02:12;;;;;;;;;;;;;;;;;;5082854;28;19912;-86
2024/01/27 08:04:38;;;;;;;;;;;;;;;;;;5076813;28;19912;-86
2024/01/27 08:07:09;;;;;;;;;;;;;;;;;;5074718;28;19938;-85
2024/01/27 08:09:35;;;;;;;;;;;;;;;;;;5063275;28;19908;-84
2024/01/27 08:12:01;;;;;;;;;;;;;;;;;;5076762;28;19927;-86
2024/01/27 08:14:28;;;;;;;;;;;;;;;;;;5075535;28;19912;-86
2024/01/27 08:16:56;;;;;;;;;;;;;;;;;;5077654;28;19907;-86
2024/01/27 08:19:22;;;;;;;;;;;;;;;;;;5077520;28;19911;-86
2024/01/27 08:21:48;;;;;;;;;;;;;;;;;;5063206;28;19911;-86
2024/01/27 08:24:16;;;;;;;;;;;;;;;;;;5080323;28;19925;-86
2024/01/27 08:26:46;;;;;;;;;;;;;;;;;;5064989;28;20047;-85
2024/01/27 08:29:12;;;;;;;;;;;;;;;;;;5065446;28;19912;-84
2024/01/27 08:31:38;;;;;;;;;;;;;;;;;;5058827;28;20628;-85
2024/01/27 08:34:04;;;;;;;;;;;;;;;;;;5060530;28;19921;-84
2024/01/27 08:36:33;;;;;;;;;;;;;;;;;;5075171;28;19912;-84
2024/01/27 08:38:59;;;;;;;;;;;;;;;;;;5060835;28;20773;-85
2024/01/27 08:41:25;;;;;;;;;;;;;;;;;;5075314;28;20474;-84
2024/01/27 08:43:51;;;;;;;;;;;;;;;;;;5079225;28;19912;-85
2024/01/27 08:46:19;;;;;;;;;;;;;;;;;;5064331;28;19918;-84
2024/01/27 08:48:45;;;;;;;;;;;;;;;;;;5077610;28;20099;-87
2024/01/27 08:51:12;;;;;;;;;;;;;;;;;;5091342;28;19896;-84
2024/01/27 08:53:38;;;;;;;;;;;;;;;;;;5082681;28;19916;-86
2024/01/27 08:56:04;;;;;;;;;;;;;;;;;;5078942;28;19918;-86
2024/01/27 08:58:30;;;;;;;;;;;;;;;;;;5061136;28;20554;-86
2024/01/27 09:00:56;;;;;;;;;;;;;;;;;;5078544;28;19923;-87
2024/01/27 09:03:22;;;;;;;;;;;;;;;;;;5068821;28;19965;-87
2024/01/27 09:05:48;;;;;;;;;;;;;;;;;;5064370;28;20002;-85
2024/01/27 09:08:15;;;;;;;;;;;;;;;;;;5075732;28;19908;-84
2024/01/27 09:10:41;;;;;;;;;;;;;;;;;;5061937;28;19916;-87
2024/01/27 09:13:07;;;;;;;;;;;;;;;;;;5058833;28;19923;-87
2024/01/27 09:15:33;;;;;;;;;;;;;;;;;;5081100;28;20002;-86
2024/01/27 09:17:59;;;;;;;;;;;;;;;;;;5058072;28;20327;-86
2024/01/27 09:20:26;;;;;;;;;;;;;;;;;;5083487;28;19944;-85
2024/01/27 09:22:52;;;;;;;;;;;;;;;;;;5063107;28;19911;-85
2024/01/27 09:25:18;;;;;;;;;;;;;;;;;;5077804;28;19927;-84
2024/01/27 09:27:44;;;;;;;;;;;;;;;;;;5053196;28;22522;-86
2024/01/27 09:30:10;;;;;;;;;;;;;;;;;;5077089;28;20782;-86
2024/01/27 09:32:36;;;;;;;;;;;;;;;;;;5059542;28;19923;-87
2024/01/27 09:35:02;;;;;;;;;;;;;;;;;;5060537;28;19912;-88
2024/01/27 09:37:28;;;;;;;;;;;;;;;;;;5075061;28;19912;-87
2024/01/27 09:39:54;;;;;;;;;;;;;;;;;;5075926;28;19978;-86
2024/01/27 09:42:20;;;;;;;;;;;;;;;;;;5065443;28;19948;-87
2024/01/27 09:44:46;;;;;;;;;;;;;;;;;;5061086;28;20552;-87
2024/01/27 09:47:12;;;;;;;;;;;;;;;;;;5074785;28;19918;-87
2024/01/27 09:49:38;;;;;;;;;;;;;;;;;;5053792;28;20331;-87
2024/01/27 09:52:04;;;;;;;;;;;;;;;;;;5079138;28;19947;-87
2024/01/27 09:54:31;;;;;;;;;;;;;;;;;;5075182;28;19955;-86
2024/01/27 09:56:57;;;;;;;;;;;;;;;;;;5069680;28;19938;-89
2024/01/27 09:59:23;;;;;;;;;;;;;;;;;;5061219;28;20443;-87
2024/01/27 10:01:51;;;;;;;;;;;;;;;;;;5054510;28;19912;-89
2024/01/27 10:04:17;;;;;;;;;;;;;;;;;;5058825;28;19912;-88
2024/01/27 10:06:43;;;;;;;;;;;;;;;;;;5056977;28;19908;-90
2024/01/27 10:09:09;;;;;;;;;;;;;;;;;;5073655;28;20387;-89
2024/01/27 10:11:35;;;;;;;;;;;;;;;;;;5068827;28;19912;-88
2024/01/27 10:14:02;;;;;;;;;;;;;;;;;;5076235;28;19919;-88
2024/01/27 10:16:28;;;;;;;;;;;;;;;;;;5063676;28;19912;-89
2024/01/27 10:18:54;;;;;;;;;;;;;;;;;;5059891;28;20725;-89
2024/01/27 10:21:20;;;;;;;;;;;;;;;;;;5070737;28;19920;-87
2024/01/27 10:23:46;;;;;;;;;;;;;;;;;;5060848;28;19931;-89
2024/01/27 10:26:12;;;;;;;;;;;;;;;;;;5065086;28;19912;-85
2024/01/27 10:28:38;;;;;;;;;;;;;;;;;;5058301;28;19912;-89
2024/01/27 10:31:04;;;;;;;;;;;;;;;;;;5072400;28;19913;-88
2024/01/27 10:33:31;;;;;;;;;;;;;;;;;;5056730;28;19931;-89
2024/01/27 10:36:00;;;;;;;;;;;;;;;;;;5075271;28;19912;-89
2024/01/27 10:38:26;;;;;;;;;;;;;;;;;;5068887;28;19923;-87
2024/01/27 10:40:52;;;;;;;;;;;;;;;;;;5084597;28;20462;-87
2024/01/27 10:43:18;;;;;;;;;;;;;;;;;;5071900;28;20552;-89
2024/01/27 10:45:44;;;;;;;;;;;;;;;;;;5063571;28;21421;-87
2024/01/27 10:48:11;;;;;;;;;;;;;;;;;;5063117;28;19920;-87
2024/01/27 10:50:38;;;;;;;;;;;;;;;;;;5063760;28;19923;-87
2024/01/27 10:53:05;;;;;;;;;;;;;;;;;;5079039;28;19975;-90
2024/01/27 10:55:30;;;;;;;;;;;;;;;;;;5081072;28;19916;-87
2024/01/27 10:57:56;;;;;;;;;;;;;;;;;;5065899;28;19912;-86
2024/01/27 11:00:23;;;;;;;;;;;;;;;;;;5073648;28;19911;-87
2024/01/27 11:02:53;;;;;;;;;;;;;;;;;;5058550;28;19912;-85
2024/01/27 11:05:18;;;;;;;;;;;;;;;;;;5061194;28;19912;-87
2024/01/27 11:07:45;;;;;;;;;;;;;;;;;;5057862;28;20437;-85
2024/01/27 11:10:11;;;;;;;;;;;;;;;;;;5074977;28;19976;-85
2024/01/27 11:12:36;;;;;;;;;;;;;;;;;;5073800;28;19915;-87
2024/01/27 11:15:03;;;;;;;;;;;;;;;;;;5059849;28;19923;-87
2024/01/27 11:17:29;;;;;;;;;;;;;;;;;;5074843;28;19916;-87
2024/01/27 11:19:55;;;;;;;;;;;;;;;;;;5072182;28;20379;-87
2024/01/27 11:22:21;;;;;;;;;;;;;;;;;;5060876;28;19916;-87
2024/01/27 11:24:47;;;;;;;;;;;;;;;;;;5057635;28;19920;-87
2024/01/27 11:27:13;;;;;;;;;;;;;;;;;;5073816;28;19916;-87
2024/01/27 11:29:39;;;;;;;;;;;;;;;;;;5073977;28;19931;-86
2024/01/27 11:32:05;;;;;;;;;;;;;;;;;;5063139;28;19939;-88
2024/01/27 11:34:31;;;;;;;;;;;;;;;;;;5076511;28;19915;-86
2024/01/27 11:36:57;;;;;;;;;;;;;;;;;;5068084;28;20356;-87
2024/01/27 11:39:23;;;;;;;;;;;;;;;;;;5058050;28;19913;-86
2024/01/27 11:41:49;;;;;;;;;;;;;;;;;;5057469;28;19931;-87
2024/01/27 11:44:16;;;;;;;;;;;;;;;;;;5060452;28;20402;-87
2024/01/27 11:46:42;;;;;;;;;;;;;;;;;;5073016;28;20017;-87
2024/01/27 11:49:08;;;;;;;;;;;;;;;;;;5076382;28;20033;-87
2024/01/27 11:51:34;;;;;;;;;;;;;;;;;;5071023;28;19939;-87
2024/01/27 11:54:00;;;;;;;;;;;;;;;;;;5058234;28;19974;-87
2024/01/27 11:56:26;;;;;;;;;;;;;;;;;;5073214;28;20034;-88
2024/01/27 11:58:52;;;;;;;;;;;;;;;;;;5059952;28;19912;-87
2024/01/27 12:01:18;;;;;;;;;;;;;;;;;;5078061;28;20543;-86
2024/01/27 12:03:45;;;;;;;;;;;;;;;;;;5064531;28;19908;-87
2024/01/27 12:06:11;;;;;;;;;;;;;;;;;;5062539;28;19916;-87
2024/01/27 12:08:37;;;;;;;;;;;;;;;;;;5070342;28;19922;-86
2024/01/27 12:11:03;;;;;;;;;;;;;;;;;;5074774;28;19912;-87
2024/01/27 12:13:29;;;;;;;;;;;;;;;;;;5057222;28;19919;-87
2024/01/27 12:15:55;;;;;;;;;;;;;;;;;;5061178;28;19919;-87
2024/01/27 12:18:21;;;;;;;;;;;;;;;;;;5075968;28;19912;-88
2024/01/27 12:20:48;;;;;;;;;;;;;;;;;;5056595;28;19923;-86
2024/01/27 12:23:14;;;;;;;;;;;;;;;;;;5074440;28;19919;-86
2024/01/27 12:25:40;;;;;;;;;;;;;;;;;;5058031;28;19917;-86
2024/01/27 12:28:07;;;;;;;;;;;;;;;;;;5061192;28;19912;-87
2024/01/27 12:30:33;;;;;;;;;;;;;;;;;;5060129;28;19938;-87
2024/01/27 12:32:59;;;;;;;;;;;;;;;;;;5056657;28;19964;-86
2024/01/27 12:35:26;;;;;;;;;;;;;;;;;;5072155;28;20461;-87
2024/01/27 12:37:53;;;;;;;;;;;;;;;;;;5075077;28;20018;-88
2024/01/27 12:40:19;;;;;;;;;;;;;;;;;;5072291;28;19912;-87
2024/01/27 12:42:45;;;;;;;;;;;;;;;;;;5053644;28;19923;-86
2024/01/27 12:45:11;;;;;;;;;;;;;;;;;;5063611;28;20387;-86
2024/01/27 12:47:37;;;;;;;;;;;;;;;;;;5055380;28;20283;-88
2024/01/27 12:50:03;;;;;;;;;;;;;;;;;;5061042;28;19912;-88
2024/01/27 12:52:29;;;;;;;;;;;;;;;;;;5070119;28;19920;-87
2024/01/27 12:54:55;;;;;;;;;;;;;;;;;;5078098;28;20399;-86
2024/01/27 12:57:21;;;;;;;;;;;;;;;;;;5072957;28;19912;-87
2024/01/27 12:59:47;;;;;;;;;;;;;;;;;;5068708;28;19919;-88
2024/01/27 13:02:15;;;;;;;;;;;;;;;;;;5070259;28;20392;-87
2024/01/27 13:04:41;;;;;;;;;;;;;;;;;;5067438;28;19920;-86
2024/01/27 13:07:07;;;;;;;;;;;;;;;;;;5070967;28;19909;-88
2024/01/27 13:09:33;;;;;;;;;;;;;;;;;;5070673;28;19912;-87
2024/01/27 13:11:59;;;;;;;;;;;;;;;;;;5056375;28;19907;-87
2024/01/27 13:14:25;;;;;;;;;;;;;;;;;;5068779;28;19911;-87
2024/01/27 13:16:53;;;;;;;;;;;;;;;;;;5051825;28;20759;-85
2024/01/27 13:19:19;;;;;;;;;;;;;;;;;;5070857;28;20409;-87
2024/01/27 13:21:45;;;;;;;;;;;;;;;;;;5052434;28;19952;-86
2024/01/27 13:24:12;;;;;;;;;;;;;;;;;;5054324;28;19970;-86
2024/01/27 13:26:38;;;;;;;;;;;;;;;;;;5067610;28;19916;-87
2024/01/27 13:29:04;;;;;;;;;;;;;;;;;;5061994;28;19928;-86
2024/01/27 13:31:30;;;;;;;;;;;;;;;;;;5054051;28;20200;-85
2024/01/27 13:33:57;;;;;;;;;;;;;;;;;;5068444;28;19927;-86
2024/01/27 13:36:23;;;;;;;;;;;;;;;;;;5051436;28;19920;-86
2024/01/27 13:38:49;;;;;;;;;;;;;;;;;;5067727;28;19912;-87
2024/01/27 13:41:15;;;;;;;;;;;;;;;;;;5069807;28;19912;-86
2024/01/27 13:43:41;;;;;;;;;;;;;;;;;;5067531;28;19965;-86
2024/01/27 13:46:07;;;;;;;;;;;;;;;;;;5068498;28;19916;-86
2024/01/27 13:48:33;;;;;;;;;;;;;;;;;;5052688;28;19912;-85
2024/01/27 13:50:59;;;;;;;;;;;;;;;;;;5055775;28;19920;-87
2024/01/27 13:53:25;;;;;;;;;;;;;;;;;;5059811;28;19955;-86
2024/01/27 13:55:51;;;;;;;;;;;;;;;;;;5070520;28;20656;-86
2024/01/27 13:58:17;;;;;;;;;;;;;;;;;;5068569;28;19917;-85
2024/01/27 14:00:43;;;;;;;;;;;;;;;;;;5051944;28;19920;-85
2024/01/27 14:03:08;;;;;;;;;;;;;;;;;;5069256;28;19938;-87
2024/01/27 14:05:34;;;;;;;;;;;;;;;;;;5066171;28;19956;-86
2024/01/27 14:08:00;;;;;;;;;;;;;;;;;;5067108;28;19912;-86
2024/01/27 14:10:26;;;;;;;;;;;;;;;;;;5068277;28;19912;-86
2024/01/27 14:12:52;;;;;;;;;;;;;;;;;;5073231;28;19912;-86
2024/01/27 14:15:18;;;;;;;;;;;;;;;;;;5073268;28;19992;-85
2024/01/27 14:17:45;;;;;;;;;;;;;;;;;;5071661;28;19909;-86
2024/01/27 14:20:12;;;;;;;;;;;;;;;;;;5067390;28;19912;-86
2024/01/27 14:22:38;;;;;;;;;;;;;;;;;;5063509;28;19985;-86
2024/01/27 14:25:04;;;;;;;;;;;;;;;;;;5060016;28;20486;-85
2024/01/27 14:27:30;;;;;;;;;;;;;;;;;;5073679;28;20410;-89
2024/01/27 14:29:56;;;;;;;;;;;;;;;;;;5074669;28;19916;-85
2024/01/27 14:32:22;;;;;;;;;;;;;;;;;;5073227;28;19916;-86
2024/01/27 14:34:48;;;;;;;;;;;;;;;;;;5055007;28;19937;-85
2024/01/27 14:37:16;;;;;;;;;;;;;;;;;;5073045;28;19912;-86
2024/01/27 14:39:44;;;;;;;;;;;;;;;;;;5071376;28;20004;-85
2024/01/27 14:42:10;;;;;;;;;;;;;;;;;;5073573;28;19947;-86
2024/01/27 14:44:36;;;;;;;;;;;;;;;;;;5072196;28;19951;-87
2024/01/27 14:47:02;;;;;;;;;;;;;;;;;;5057227;28;20014;-86
2024/01/27 14:49:28;;;;;;;;;;;;;;;;;;5059413;28;20434;-87
2024/01/27 14:51:54;;;;;;;;;;;;;;;;;;5076064;28;20594;-85
2024/01/27 14:54:20;;;;;;;;;;;;;;;;;;5059087;28;20599;-85
2024/01/27 14:56:46;;;;;;;;;;;;;;;;;;5071011;28;20014;-86
2024/01/27 14:59:12;;;;;;;;;;;;;;;;;;5058429;28;20419;-85
2024/01/27 15:01:38;;;;;;;;;;;;;;;;;;5071347;28;19912;-85
2024/01/27 15:04:05;;;;;;;;;;;;;;;;;;5072221;28;20303;-84
2024/01/27 15:06:30;;;;;;;;;;;;;;;;;;5069610;28;19916;-85
2024/01/27 15:08:57;;;;;;;;;;;;;;;;;;5064782;28;20520;-85
2024/01/27 15:11:22;;;;;;;;;;;;;;;;;;5058997;28;19912;-84
2024/01/27 15:13:48;;;;;;;;;;;;;;;;;;5058447;28;19942;-87
2024/01/27 15:16:14;;;;;;;;;;;;;;;;;;5061312;28;19924;-84
2024/01/27 15:18:43;;;;;;;;;;;;;;;;;;5072649;28;20030;-85
2024/01/27 15:21:09;;;;;;;;;;;;;;;;;;5076168;28;19923;-86
2024/01/27 15:23:36;;;;;;;;;;;;;;;;;;5059477;28;19916;-85
2024/01/27 15:26:03;;;;;;;;;;;;;;;;;;5059259;28;20674;-85
2024/01/27 15:28:29;;;;;;;;;;;;;;;;;;5073702;28;19912;-84
2024/01/27 15:30:55;;;;;;;;;;;;;;;;;;5074705;28;20707;-85
2024/01/27 15:33:21;;;;;;;;;;;;;;;;;;5079573;28;20439;-84
2024/01/27 15:35:47;;;;;;;;;;;;;;;;;;5074935;28;20368;-86
2024/01/27 15:38:13;;;;;;;;;;;;;;;;;;5060870;28;19930;-85
2024/01/27 15:40:39;;;;;;;;;;;;;;;;;;5077101;28;19920;-85
2024/01/27 15:43:05;;;;;;;;;;;;;;;;;;5078059;28;19922;-85
2024/01/27 15:45:31;;;;;;;;;;;;;;;;;;5072959;28;19950;-85
2024/01/27 15:47:59;;;;;;;;;;;;;;;;;;5058893;28;19912;-84
2024/01/27 15:50:27;;;;;;;;;;;;;;;;;;5075008;28;20025;-84
2024/01/27 15:52:53;;;;;;;;;;;;;;;;;;5074919;28;19920;-88
2024/01/27 15:55:19;;;;;;;;;;;;;;;;;;5071766;28;20517;-86
2024/01/27 15:57:45;;;;;;;;;;;;;;;;;;5072263;28;19966;-85
2024/01/27 16:00:11;;;;;;;;;;;;;;;;;;5077140;28;20509;-84
2024/01/27 16:02:38;;;;;;;;;;;;;;;;;;5076596;28;20339;-85
2024/01/27 16:05:04;;;;;;;;;;;;;;;;;;5060016;28;19912;-85
2024/01/27 16:07:30;;;;;;;;;;;;;;;;;;5071885;28;19915;-86
2024/01/27 16:10:01;;;;;;;;;;;;;;;;;;5073096;28;20014;-86
2024/01/27 16:12:27;;;;;;;;;;;;;;;;;;5075659;28;19916;-85
2024/01/27 16:14:53;;;;;;;;;;;;;;;;;;5059474;28;19919;-85
2024/01/27 16:17:19;;;;;;;;;;;;;;;;;;5074666;28;19911;-86
2024/01/27 16:19:45;;;;;;;;;;;;;;;;;;5076117;28;19916;-86
2024/01/27 16:22:11;;;;;;;;;;;;;;;;;;5059637;28;19916;-86
2024/01/27 16:24:37;;;;;;;;;;;;;;;;;;5042382;28;20431;-86
2024/01/27 16:27:03;;;;;;;;;;;;;;;;;;5038896;28;19916;-86
2024/01/27 16:29:29;;;;;;;;;;;;;;;;;;5030605;28;19913;-86
2024/01/27 16:31:55;;;;;;;;;;;;;;;;;;5027464;28;19913;-85
2024/01/27 16:34:21;;;;;;;;;;;;;;;;;;5036272;28;19943;-84
2024/01/27 16:36:47;;;;;;;;;;;;;;;;;;5038155;28;19920;-83
2024/01/27 16:39:14;;;;;;;;;;;;;;;;;;5039269;28;19913;-85